Terminal Aerodrome Forecast
Issued by NWS La Crosse, WI

Home | Current Version | Previous Version | Text Only | Print | Product List | Glossary On
Versions: 1 2 3 4 5 6 7 8 9 10 11 12 13
000
FTUS43 KARX 200520
TAFRST
TAF
KRST 200520Z 2006/2106 03009KT 2SM -FZRA BR OVC003
     FM201100 36007KT 2SM -FZRA BR OVC003
     FM201400 34007KT 3SM BR OVC003
     FM201900 30013KT 5SM BR OVC008
     FM202100 30013KT P6SM OVC008
     FM210200 30012G20KT P6SM BKN045=

USA.gov is the U.S. government's official web portal to all federal, state and local government web resources and services.